Caletta — ICNZ — position and weather

sailwx.info

Track history (hours):
 
Tides and Currents Weather Stations Pressure Air Temp Water Temp Dewpoint Dewpoint Depression Visibility Wind Speed Wind Dir Waves Ship Positions

Caletta

Last reported at 2016-Feb-02 19:29 UTC. Time now 2016-Feb-10 22:01 UTC.
Position N 36°47' E 003°07'.
Warning: this ship's position is 8 days out of date.

Length 183 m; draft 9 m.

Type: Ship (hazmat cat A). MMSI: 247296300.

Date/timePositionNaut miles runAvg speedWind from/ knotsBaromVisibWave heightAir tempDewpointWater temp
2016-Feb-02 19:29N 36°47' E 003°07'0 0.0
2016-Feb-02 18:29N 36°47' E 003°07'0 0.0
2016-Feb-02 16:29N 36°47' E 003°07'0 0.0
2016-Feb-02 13:28N 36°47' E 003°07'0 0.1
2016-Feb-02 11:29N 36°47' E 003°07'0 0.0
2016-Feb-02 04:29N 36°47' E 003°07'0 0.0
2016-Feb-02 00:28N 36°47' E 003°07'0 0.0
2016-Feb-01 23:17N 36°47' E 003°07'0 0.0
2016-Feb-01 20:29N 36°47' E 003°07'0 0.0
2016-Feb-01 18:17N 36°47' E 003°07'0 0.0
2016-Feb-01 17:29N 36°47' E 003°07'0 0.0
2016-Feb-01 16:29N 36°47' E 003°07'120 3.4
2016-Jan-31 05:33N 38°44' E 002°29'1413.7
2016-Jan-31 04:33N 38°57' E 002°23'1413.6
2016-Jan-31 03:33N 39°10' E 002°19'1413.8
2016-Jan-31 02:33N 39°23' E 002°15'1414.1
2016-Jan-31 01:34N 39°37' E 002°11'1413.6
2016-Jan-31 00:33N 39°50' E 002°11'1413.7
2016-Jan-30 23:33N 40°04' E 002°11'1414.0
2016-Jan-30 22:33N 40°18' E 002°11'1414.0
2016-Jan-30 21:33N 40°32' E 002°11'1414.1
2016-Jan-30 20:33N 40°46' E 002°11'1414.3
2016-Jan-30 19:33N 41°01' E 002°11'1414.3
2016-Jan-30 18:33N 41°15' E 002°11'2 0.1
2016-Jan-29 11:14N 41°17' E 002°11'7 7.5
2016-Jan-29 10:19N 41°13' E 002°19'1114.7
2016-Jan-29 09:33N 41°07' E 002°31'1514.6
2016-Jan-29 08:33N 40°60' E 002°48'1514.6
2016-Jan-29 07:33N 40°53' E 003°05'1414.3
2016-Jan-29 06:33N 40°46' E 003°22'27313.6
2016-Jan-28 10:28N 38°46' E 008°41'1414.1
2016-Jan-28 09:28N 38°46' E 008°59'1914.2
2016-Jan-28 08:09N 38°39' E 009°22'914.4
2016-Jan-28 07:33N 38°35' E 009°31'1414.4
2016-Jan-28 06:32N 38°29' E 009°48'10514.3
2016-Jan-27 23:14N 37°45' E 011°49'2414.1
2016-Jan-27 21:30N 37°35' E 012°17'3414.1
2016-Jan-27 19:05N 37°23' E 012°57'4113.7
2016-Jan-27 16:05N 37°03' E 013°43'713.6
2016-Jan-27 15:33N 36°60' E 013°50'1413.5
2016-Jan-27 14:33N 36°53' E 014°05'1413.9
2016-Jan-27 13:33N 36°45' E 014°20'1413.7
2016-Jan-27 12:33N 36°39' E 014°35'1413.5
2016-Jan-27 11:33N 36°35' E 014°51'  
Track history (hours):
 
Tides and Currents Weather Stations Pressure Air Temp Water Temp Dewpoint Dewpoint Depression Visibility Wind Speed Wind Dir Waves Ship Positions

Caletta

Last reported at 2016-Feb-02 19:29 UTC. Time now 2016-Feb-10 22:01 UTC.
Position N 36°47' E 003°07'.
Warning: this ship's position is 8 days out of date.

Length 183 m; draft 9 m.

Type: Ship (hazmat cat A). MMSI: 247296300.

Date/timePositionNaut miles runAvg speedWind from/ knotsBaromVisibWave heightAir tempDewpointWater temp
2016-Feb-02 19:29N 36°47' E 003°07'0 0.0
2016-Feb-02 18:29N 36°47' E 003°07'0 0.0
2016-Feb-02 16:29N 36°47' E 003°07'0 0.0
2016-Feb-02 13:28N 36°47' E 003°07'0 0.1
2016-Feb-02 11:29N 36°47' E 003°07'0 0.0
2016-Feb-02 04:29N 36°47' E 003°07'0 0.0
2016-Feb-02 00:28N 36°47' E 003°07'0 0.0
2016-Feb-01 23:17N 36°47' E 003°07'0 0.0
2016-Feb-01 20:29N 36°47' E 003°07'0 0.0
2016-Feb-01 18:17N 36°47' E 003°07'0 0.0
2016-Feb-01 17:29N 36°47' E 003°07'0 0.0
2016-Feb-01 16:29N 36°47' E 003°07'120 3.4
2016-Jan-31 05:33N 38°44' E 002°29'1413.7
2016-Jan-31 04:33N 38°57' E 002°23'1413.6
2016-Jan-31 03:33N 39°10' E 002°19'1413.8
2016-Jan-31 02:33N 39°23' E 002°15'1414.1
2016-Jan-31 01:34N 39°37' E 002°11'1413.6
2016-Jan-31 00:33N 39°50' E 002°11'1413.7
2016-Jan-30 23:33N 40°04' E 002°11'1414.0
2016-Jan-30 22:33N 40°18' E 002°11'1414.0
2016-Jan-30 21:33N 40°32' E 002°11'1414.1
2016-Jan-30 20:33N 40°46' E 002°11'1414.3
2016-Jan-30 19:33N 41°01' E 002°11'1414.3
2016-Jan-30 18:33N 41°15' E 002°11'2 0.1
2016-Jan-29 11:14N 41°17' E 002°11'7 7.5
2016-Jan-29 10:19N 41°13' E 002°19'1114.7
2016-Jan-29 09:33N 41°07' E 002°31'1514.6
2016-Jan-29 08:33N 40°60' E 002°48'1514.6
2016-Jan-29 07:33N 40°53' E 003°05'1414.3
2016-Jan-29 06:33N 40°46' E 003°22'27313.6
2016-Jan-28 10:28N 38°46' E 008°41'1414.1
2016-Jan-28 09:28N 38°46' E 008°59'1914.2
2016-Jan-28 08:09N 38°39' E 009°22'914.4
2016-Jan-28 07:33N 38°35' E 009°31'1414.4
2016-Jan-28 06:32N 38°29' E 009°48'10514.3
2016-Jan-27 23:14N 37°45' E 011°49'2414.1
2016-Jan-27 21:30N 37°35' E 012°17'3414.1
2016-Jan-27 19:05N 37°23' E 012°57'4113.7
2016-Jan-27 16:05N 37°03' E 013°43'713.6
2016-Jan-27 15:33N 36°60' E 013°50'1413.5
2016-Jan-27 14:33N 36°53' E 014°05'1413.9
2016-Jan-27 13:33N 36°45' E 014°20'1413.7
2016-Jan-27 12:33N 36°39' E 014°35'1413.5
2016-Jan-27 11:33N 36°35' E 014°51'  

Dump ship's entire track history